Scotchtown, New York
Current Conditions -  °F | °C
As of 5:54 PM on Thursday 18 Dec 2014 (Local Time) from KMGJ Reporting Station
Overcast Overcast  
Wind Chill: 31°   Ceiling: 2600
Heat Index: 37°   Visibility: 10mi
Dew Point: 27°   Wind: 8mph
Humidity: 67%   Direction: 290°WNW
Pressure: 29.96"   Gusts: NA
Location:  41.45°N, 74.41°W
Report Text: KMGJ 182254Z AUTO 29007KT 10SM OVC026 03/M03 A2996 RMK AO2 SLP146 T00281028 TSNO
Loading
Personal Weather Stations






























Interactive Weather Map New forecast layout! Learn more

10-Day Weather Forecast

Advertisements
Track Severe Weather on mobile